SEGU

José Joaquín de Olmedo International Airport

Guayaquil, Ecuador
SEGU 220935Z 2212/2312 06005KT 9999 BKN020 BKN100 FM221700 16005KT 9999 SCT020 SCT100 TEMPO 2222/2224 SHRA BKN020 FM230000 24005KT 9999 BKN020 BKN100 TX31/2220Z TN23/2309Z
Issued Valid From Valid To
Jan-22 @ 09:35 UTC
(7 hours ago)
Jan-22 @ 12:00 UTC
(5 hours ago)
Jan-23 @ 12:00 UTC
(in 19 hours)
Jan-22 @ 12:00 to Jan-22 @ 17:00
SEGU 220935Z 2212/2312 06005KT 9999 BKN020 BKN100
Wind Visibility Clouds
60° at 5 knots 10,000+ meters
  • Broken at 2,000' AGL
  • Broken at 10,000' AGL
From Jan-22 @ 17:00 to Jan-23 @ 00:00
FM221700 16005KT 9999 SCT020 SCT100
Wind Visibility Clouds
160° at 5 knots 10,000+ meters
  • Scattered at 2,000' AGL
  • Scattered at 10,000' AGL
Temporary Jan-22 @ 22:00 to Jan-23 @ 00:00
TEMPO 2222/2224 SHRA BKN020
Clouds Conditions
  • Broken at 2,000' AGL
  • Rain
From Jan-23 @ 00:00 to Jan-23 @ 12:00
FM230000 24005KT 9999 BKN020 BKN100 TX31/2220Z TN23/2309Z
Wind Visibility Clouds
240° at 5 knots 10,000+ meters
  • Broken at 2,000' AGL
  • Broken at 10,000' AGL
SEGU 220935Z 2212/2312 06005KT 9999 BKN020 BKN100 FM221700 16005KT 9999 SCT020 SCT100 TEMPO 2222/2224 SHRA BKN020 FM230000 24005KT 9999 BKN020 BKN100 TX31/2220Z TN23/2309Z
Issued Jan-22 @ 09:35 UTC
(7 hours ago)
Valid From Jan-22 @ 12:00 UTC
(5 hours ago)
Valid To Jan-23 @ 12:00 UTC
(in 19 hours)
Jan-22 @ 12:00 - Jan-22 @ 17:00
Wind Visibility
60° at 5 knots 10,000+ meters
Clouds
  • Broken at 2,000' AGL
  • Broken at 10,000' AGL
From Jan-22 @ 17:00 - Jan-23 @ 00:00
Wind Visibility
160° at 5 knots 10,000+ meters
Clouds
  • Scattered at 2,000' AGL
  • Scattered at 10,000' AGL
Temporary Jan-22 @ 22:00 - Jan-23 @ 00:00
Clouds
  • Broken at 2,000' AGL
Conditions
  • Rain
From Jan-23 @ 00:00 - Jan-23 @ 12:00
Wind Visibility
240° at 5 knots 10,000+ meters
Clouds
  • Broken at 2,000' AGL
  • Broken at 10,000' AGL